This is the latest recevied weather packets stored in our database for station/object G7GFU-13. If no packets are shown the sender has not sent any weather packets the latest 10 day(s).
| Time | Temp. | Humidity | Pressure | Rain* | Wind** | Luminosity | Snow |
|---|---|---|---|---|---|---|---|
| 1777384803 | 13.33° C | 62% | 1029.3 hPa | 0 mm | - | - | - |
| 1777384037 | 13.33° C | 63% | 1029.3 hPa | 0 mm | - | - | - |
| 1777382283 | 11.67° C | 67% | 1029.6 hPa | 0 mm | - | - | - |
| 1777381743 | 11.67° C | 69% | 1029.6 hPa | 0 mm | - | - | - |
| 1777377603 | 11.67° C | 67% | 1029.6 hPa | 0 mm | - | - | - |
| 1777369096 | 10° C | 73% | 1029.5 hPa | 0 mm | - | - | - |
| 1777367343 | 10° C | 76% | 1029.4 hPa | 0 mm | - | - | - |
| 1777362303 | 9.44° C | 79% | 1029.3 hPa | 0 mm | - | - | - |
| 1777361763 | 9.44° C | 79% | 1029.2 hPa | 0 mm | - | - | - |
| 1777361223 | 9.44° C | 80% | 1029 hPa | 0 mm | - | - | - |
| 1777358703 | 9.44° C | 80% | 1028.7 hPa | 0 mm | - | - | - |
| 1777358163 | 9.44° C | 80% | 1028.6 hPa | 0 mm | - | - | - |
| 1777356003 | 9.44° C | 80% | 1028.4 hPa | 0 mm | - | - | - |
| 1777354563 | 9.44° C | 80% | 1028.4 hPa | 0 mm | - | - | - |
| 1777347363 | 8.89° C | 80% | 1027.9 hPa | 0 mm | - | - | - |
| 1777346823 | 8.89° C | 80% | 1028 hPa | 0 mm | - | - | - |
| 1777342683 | 9.44° C | 80% | 1028.1 hPa | 0 mm | - | - | - |
| 1777339083 | 8.89° C | 83% | 1027.9 hPa | 0 mm | - | - | - |
| 1777338543 | 8.89° C | 84% | 1027.9 hPa | 0 mm | - | - | - |
| 1777336697 | 9.44° C | 84% | 1027.6 hPa | 0 mm | - | - | - |
| 1777335483 | 9.44° C | 84% | 1027.5 hPa | 0 mm | - | - | - |
| 1777332423 | 9.44° C | 90% | 1027.2 hPa | 0 mm | - | - | - |
| 1777330443 | 10° C | 89% | 1027.2 hPa | 0 mm | - | - | - |
| 1777323603 | 11.11° C | 83% | 1026.7 hPa | 0 mm | - | - | - |
| 1777322703 | 11.67° C | 83% | 1026.7 hPa | 0 mm | - | - | - |
* Rain latest hour (hover to see other rain measurements)
** Current wind speed in m/s (hover to see current wind gust speed)